Time;durP1;ratioP1;P1;durP2;ratioP2;P2;SDS_P1;SDS_P2;PMS_P1;PMS_P2;Temp;Humidity;BMP_temperature;BMP_pressure;BME280_temperature;BME280_humidity;BME280_pressure;Samples;Min_cycle;Max_cycle;Signal;HPM_P1;HPM_P2
2022/01/28 00:04:47;;;;;;;;;66.75;51.25;;;;;7.49;88.03;102868.44;5001138;28;45242;-76
2022/01/28 00:07:13;;;;;;;;;62.75;50.75;;;;;7.57;87.77;102884.63;4983631;28;46127;-76
2022/01/28 00:09:38;;;;;;;;;65.50;52.50;;;;;7.54;88.15;102885.69;4983226;28;45278;-76
2022/01/28 00:12:06;;;;;;;;;64.75;50.75;;;;;7.55;88.21;102887.38;5001069;28;45219;-77
2022/01/28 00:14:56;;;;;;;;;61.50;49.25;;;;;7.60;88.25;102900.31;5001044;28;47154;-76
2022/01/28 00:18:04;;;;;;;;;65.50;51.75;;;;;7.59;88.13;102901.28;5001019;28;45525;-77
2022/01/28 00:39:24;;;;;;;;;66.50;51.00;;;;;7.61;87.96;102895.88;5000443;28;45250;-77
2022/01/28 00:41:49;;;;;;;;;61.75;47.50;;;;;7.66;88.28;102914.97;4982858;28;45761;-76
2022/01/28 00:44:14;;;;;;;;;66.50;52.00;;;;;7.65;87.90;102922.03;4982949;28;46118;-76
2022/01/28 00:46:40;;;;;;;;;63.75;51.00;;;;;7.61;88.12;102922.34;4982949;28;47422;-76
2022/01/28 00:49:05;;;;;;;;;66.50;52.00;;;;;7.65;88.35;102929.13;4982927;28;46064;-76
2022/01/28 00:51:31;;;;;;;;;68.00;53.00;;;;;7.67;87.99;102928.06;4982874;28;45434;-77
2022/01/28 00:53:56;;;;;;;;;68.00;54.00;;;;;7.61;87.69;102923.19;5000507;28;45523;-76
2022/01/28 00:56:21;;;;;;;;;56.75;45.75;;;;;7.60;87.85;102908.25;5000400;28;45403;-76
2022/01/28 00:58:48;;;;;;;;;66.25;50.50;;;;;7.64;88.15;102930.94;4982618;28;45294;-76
2022/01/28 01:01:13;;;;;;;;;67.25;53.50;;;;;7.61;87.88;102915.25;5000523;28;45326;-76
2022/01/28 01:03:39;;;;;;;;;64.00;50.50;;;;;7.61;88.24;102922.34;4982430;28;45696;-77
2022/01/28 01:06:04;;;;;;;;;62.25;49.00;;;;;7.66;88.42;102933.50;5000487;28;46363;-77
2022/01/28 01:08:29;;;;;;;;;67.25;52.50;;;;;7.62;87.56;102922.25;4982503;28;45272;-76
2022/01/28 01:10:55;;;;;;;;;63.75;50.25;;;;;7.64;87.69;102925.66;4998981;28;45276;-76
2022/01/28 01:13:20;;;;;;;;;64.75;50.50;;;;;7.68;87.70;102927.13;5000106;28;45459;-77
2022/01/28 01:15:50;;;;;;;;;64.75;52.00;;;;;7.61;87.93;102920.56;5000205;28;45390;-76
2022/01/28 01:18:22;;;;;;;;;64.25;50.50;;;;;7.62;87.98;102929.31;4982268;28;45383;-76
2022/01/28 01:23:22;;;;;;;;;63.00;50.25;;;;;7.75;87.75;102955.84;5000136;28;45353;-77
2022/01/28 01:26:06;;;;;;;;;57.75;47.75;;;;;7.69;87.08;102934.13;5000038;28;46201;-77
2022/01/28 01:28:36;;;;;;;;;66.00;52.75;;;;;7.67;87.71;102940.47;4999800;28;45303;-76
2022/01/28 01:31:09;;;;;;;;;67.75;52.75;;;;;7.67;87.80;102943.13;4999792;28;45305;-76
2022/01/28 01:33:41;;;;;;;;;62.75;48.50;;;;;7.50;87.64;102913.31;4999953;28;45563;-76
2022/01/28 01:36:06;;;;;;;;;66.50;51.25;;;;;7.68;87.84;102947.44;4999695;28;46190;-76
2022/01/28 01:38:35;;;;;;;;;56.50;46.25;;;;;7.63;88.16;102937.16;4999850;28;45238;-76
2022/01/28 01:41:03;;;;;;;;;57.50;47.00;;;;;7.66;87.83;102952.84;4999786;28;45340;-76
2022/01/28 01:43:48;;;;;;;;;63.75;50.75;;;;;7.70;87.75;102964.09;4999500;28;45439;-76
2022/01/28 01:54:26;;;;;;;;;62.50;50.50;;;;;7.63;87.91;102974.22;4999488;28;45396;-76
2022/01/28 01:56:54;;;;;;;;;64.75;50.25;;;;;7.60;88.31;102971.78;4999355;28;45471;-77
2022/01/28 01:59:19;;;;;;;;;62.50;50.00;;;;;7.61;87.70;102976.13;4999734;28;45275;-76
2022/01/28 02:01:45;;;;;;;;;62.00;50.25;;;;;7.52;87.74;102966.13;4999680;28;45281;-76
2022/01/28 02:04:10;;;;;;;;;64.50;49.00;;;;;7.56;88.18;102983.50;4999659;28;45215;-76
2022/01/28 02:06:37;;;;;;;;;60.50;48.50;;;;;7.52;87.97;102982.00;4999523;28;46070;-76
2022/01/28 02:09:04;;;;;;;;;62.75;51.00;;;;;7.61;88.07;102996.44;4997824;28;45234;-76
2022/01/28 02:11:29;;;;;;;;;62.50;50.25;;;;;7.62;88.39;102999.00;4999337;28;45248;-76
2022/01/28 02:13:54;;;;;;;;;64.00;49.00;;;;;7.49;88.01;102982.22;4999516;28;45310;-76
2022/01/28 02:16:20;;;;;;;;;62.50;50.00;;;;;7.60;88.47;102995.59;4999386;28;45306;-76
2022/01/28 02:18:46;;;;;;;;;58.75;46.75;;;;;7.57;88.24;102986.06;4999203;28;45373;-77
2022/01/28 02:21:14;;;;;;;;;61.25;49.75;;;;;7.68;88.09;102993.31;4999582;28;45256;-76
2022/01/28 02:23:41;;;;;;;;;60.75;47.75;;;;;7.69;88.04;102991.50;5002562;28;45489;-76
2022/01/28 02:26:11;;;;;;;;;58.00;47.75;;;;;7.64;88.29;102983.88;4985228;28;46297;-77
2022/01/28 02:28:39;;;;;;;;;62.50;49.50;;;;;7.70;88.42;103001.97;5002415;28;45356;-76
2022/01/28 02:31:05;;;;;;;;;55.50;46.25;;;;;7.69;88.37;103000.28;4984921;28;45349;-77
2022/01/28 02:33:31;;;;;;;;;50.00;38.75;;;;;7.64;88.36;102988.31;4984708;28;46118;-76
2022/01/28 02:36:03;;;;;;;;;53.75;44.00;;;;;7.66;88.34;102992.56;5002623;28;45237;-76
2022/01/28 02:38:29;;;;;;;;;55.25;43.00;;;;;7.74;88.32;103004.44;5002608;28;45373;-76
2022/01/28 02:41:01;;;;;;;;;51.25;42.25;;;;;7.69;88.48;102995.00;4984898;28;45394;-76
2022/01/28 02:43:35;;;;;;;;;56.75;46.25;;;;;7.78;87.95;103008.59;4984672;28;45976;-76
2022/01/28 02:46:10;;;;;;;;;53.25;42.75;;;;;7.74;88.00;102988.56;5002084;28;46244;-76
2022/01/28 02:48:39;;;;;;;;;56.75;43.75;;;;;7.74;88.13;102992.06;5002077;28;45310;-76
2022/01/28 02:51:18;;;;;;;;;48.75;40.50;;;;;7.73;87.65;102992.16;5002524;28;45336;-76
2022/01/28 02:56:18;;;;;;;;;56.00;42.25;;;;;7.38;88.15;102937.91;5002021;28;45316;-76
2022/01/28 02:58:45;;;;;;;;;49.25;39.50;;;;;7.86;87.83;103016.03;5002227;28;45178;-76
2022/01/28 03:01:13;;;;;;;;;42.75;36.75;;;;;7.78;88.03;103008.59;4984516;28;45376;-77
2022/01/28 03:03:40;;;;;;;;;56.50;45.00;;;;;7.79;87.88;103007.66;5002082;28;45441;-76
2022/01/28 03:06:05;;;;;;;;;59.50;46.50;;;;;7.88;88.05;103006.19;5002041;28;45283;-76
2022/01/28 03:08:31;;;;;;;;;54.00;45.00;;;;;7.79;87.66;102989.13;4984345;28;45198;-76
2022/01/28 03:16:22;;;;;;;;;54.25;44.00;;;;;7.77;88.01;102996.28;5001794;28;45373;-76
2022/01/28 03:18:54;;;;;;;;;53.75;43.50;;;;;7.65;87.63;102976.75;5016865;28;45293;-76
2022/01/28 03:23:53;;;;;;;;;51.00;42.50;;;;;7.77;87.76;102986.56;5002006;28;45251;-77
2022/01/28 03:26:19;;;;;;;;;52.75;42.75;;;;;7.72;87.80;102987.81;5001362;28;45194;-77
2022/01/28 03:28:44;;;;;;;;;51.75;42.00;;;;;7.65;87.83;102982.91;4984111;28;45259;-77
2022/01/28 03:31:09;;;;;;;;;56.25;43.50;;;;;7.41;87.68;102935.06;5001592;28;45391;-76
2022/01/28 03:33:35;;;;;;;;;55.75;45.00;;;;;7.83;88.03;102998.53;5000721;28;45349;-76
2022/01/28 03:36:03;;;;;;;;;56.00;45.75;;;;;7.78;88.09;102995.38;5001691;28;45357;-76
2022/01/28 03:38:29;;;;;;;;;61.75;48.00;;;;;7.85;87.40;102999.31;5001805;28;45377;-77
2022/01/28 03:40:56;;;;;;;;;55.75;44.00;;;;;7.70;87.73;102977.34;5001590;28;45246;-76
2022/01/28 03:43:22;;;;;;;;;56.25;44.75;;;;;7.78;87.51;103006.78;5002027;28;45171;-77
2022/01/28 03:45:48;;;;;;;;;55.75;45.25;;;;;7.76;87.72;103005.19;5001340;28;45390;-77
2022/01/28 03:48:13;;;;;;;;;59.00;46.00;;;;;7.74;87.86;103010.59;5001461;28;45222;-76
2022/01/28 03:50:39;;;;;;;;;54.50;42.25;;;;;7.75;87.63;103006.97;4983941;28;45336;-76
2022/01/28 03:53:06;;;;;;;;;54.50;45.25;;;;;7.67;87.31;102985.47;4983677;28;45330;-77
2022/01/28 03:55:31;;;;;;;;;56.75;43.25;;;;;7.75;87.42;103006.16;5001218;28;46754;-77
2022/01/28 03:57:57;;;;;;;;;55.00;45.50;;;;;7.78;87.33;103009.44;4984226;28;46092;-77
2022/01/28 04:00:28;;;;;;;;;52.50;43.00;;;;;7.69;87.76;103004.72;4983901;28;45325;-76
2022/01/28 04:11:30;;;;;;;;;50.25;38.00;;;;;7.75;87.53;103025.50;5000959;28;45497;-76
2022/01/28 04:14:00;;;;;;;;;53.00;40.50;;;;;7.72;87.22;103031.00;5001234;28;45368;-77
2022/01/28 04:17:19;;;;;;;;;48.00;39.00;;;;;7.64;87.98;103025.38;5001035;28;46034;-76
2022/01/28 04:19:16;;;;;;;;;52.25;42.50;;;;;7.57;87.62;103015.16;5000168;28;45458;-76
2022/01/28 04:21:41;;;;;;;;;47.75;39.00;;;;;7.66;87.77;103026.13;4983908;28;45335;-77
2022/01/28 04:24:07;;;;;;;;;52.75;40.25;;;;;7.56;87.56;103015.25;4983142;28;47019;-76
2022/01/28 04:26:32;;;;;;;;;48.75;40.25;;;;;7.64;87.86;103018.28;5000877;28;46542;-76
2022/01/28 04:28:57;;;;;;;;;55.25;43.50;;;;;7.47;87.55;103000.84;5000680;28;45338;-75
2022/01/28 04:31:23;;;;;;;;;56.75;46.75;;;;;7.63;87.45;103026.31;5001100;28;45300;-76
2022/01/28 04:33:49;;;;;;;;;61.25;47.75;;;;;7.57;87.41;103023.09;5000961;28;45528;-77
2022/01/28 04:36:16;;;;;;;;;58.00;47.50;;;;;7.56;87.30;103017.91;4983980;28;46914;-77
2022/01/28 04:38:50;;;;;;;;;56.50;48.00;;;;;7.47;87.28;103010.56;5000843;28;45325;-76
2022/01/28 04:41:27;;;;;;;;;64.75;48.50;;;;;7.37;87.41;102995.28;5000396;28;45274;-77
2022/01/28 04:44:00;;;;;;;;;58.00;47.25;;;;;7.52;87.86;103019.91;5000403;28;46337;-77
2022/01/28 04:47:32;;;;;;;;;56.75;46.50;;;;;7.50;87.81;103027.09;5000500;28;47074;-76
2022/01/28 04:49:36;;;;;;;;;61.00;48.50;;;;;7.44;87.79;103019.53;4991243;28;45581;-77
2022/01/28 04:55:09;;;;;;;;;60.00;47.00;;;;;7.41;88.01;103028.53;4977001;28;45212;-76
2022/01/28 05:00:15;;;;;;;;;59.00;47.75;;;;;7.38;87.69;103046.38;5001060;28;45278;-77
2022/01/28 05:03:03;;;;;;;;;61.75;47.50;;;;;7.36;87.25;103041.19;4998660;28;45791;-77
2022/01/28 05:26:54;;;;;;;;;55.75;45.50;;;;;7.02;87.26;103090.88;4946032;28;45322;-77
2022/01/28 05:29:19;;;;;;;;;59.25;46.50;;;;;6.95;87.13;103091.25;4999741;28;46077;-78
2022/01/28 05:31:46;;;;;;;;;55.75;45.50;;;;;6.99;87.04;103105.16;4982198;28;46164;-77
2022/01/28 05:34:12;;;;;;;;;52.50;40.75;;;;;6.92;87.35;103098.53;5000240;28;45331;-76
2022/01/28 05:36:37;;;;;;;;;52.00;43.00;;;;;6.91;87.04;103094.16;4982242;28;45835;-76
2022/01/28 05:39:02;;;;;;;;;53.75;44.50;;;;;6.87;87.18;103093.50;4970112;28;48492;-76
2022/01/28 05:41:28;;;;;;;;;58.50;44.50;;;;;6.89;87.20;103096.06;4962005;28;45441;-77
2022/01/28 05:43:53;;;;;;;;;54.75;45.00;;;;;6.93;87.13;103101.09;4978569;28;45342;-76
2022/01/28 05:46:18;;;;;;;;;51.25;41.50;;;;;6.94;87.36;103120.41;4979952;28;45412;-77
2022/01/28 05:48:44;;;;;;;;;54.75;43.75;;;;;6.95;87.72;103132.72;4962401;28;47170;-77
2022/01/28 05:51:11;;;;;;;;;51.50;42.25;;;;;6.96;87.00;103129.13;4962373;28;45876;-76
2022/01/28 05:53:37;;;;;;;;;58.50;46.25;;;;;6.92;87.30;103124.97;4978476;28;45492;-77
2022/01/28 05:56:02;;;;;;;;;53.50;44.00;;;;;6.88;87.53;103128.75;4966610;28;46169;-77
2022/01/28 05:58:28;;;;;;;;;50.50;42.50;;;;;6.94;87.25;103133.63;5002187;28;46098;-78
2022/01/28 06:00:53;;;;;;;;;56.75;43.25;;;;;6.82;87.38;103119.34;4988072;28;45242;-77
2022/01/28 06:03:18;;;;;;;;;53.00;42.75;;;;;6.90;87.37;103138.28;4988519;28;45239;-77
2022/01/28 06:05:45;;;;;;;;;53.00;44.00;;;;;6.89;86.66;103141.84;5006142;28;45337;-76
2022/01/28 06:08:10;;;;;;;;;56.50;46.25;;;;;6.84;87.01;103143.91;5005829;28;45960;-76
2022/01/28 06:10:36;;;;;;;;;51.75;43.25;;;;;6.82;87.61;103140.50;4991031;28;45305;-77
2022/01/28 06:13:01;;;;;;;;;52.00;43.50;;;;;6.81;87.25;103131.75;4986059;28;45294;-76
2022/01/28 06:15:26;;;;;;;;;46.50;38.25;;;;;6.83;87.30;103136.94;4968492;28;47050;-77
2022/01/28 06:17:52;;;;;;;;;52.50;42.50;;;;;6.88;87.02;103156.00;4990183;28;46856;-76
2022/01/28 06:20:19;;;;;;;;;49.25;39.50;;;;;6.88;87.23;103148.06;4968119;28;45379;-76
2022/01/28 06:22:45;;;;;;;;;52.00;42.25;;;;;6.93;86.92;103155.75;4979203;28;45491;-76
2022/01/28 06:25:13;;;;;;;;;51.00;42.25;;;;;6.92;87.05;103154.03;4985910;28;45466;-76
2022/01/28 06:27:39;;;;;;;;;53.50;44.00;;;;;6.88;87.36;103142.78;4985219;28;46268;-76
2022/01/28 06:30:05;;;;;;;;;52.25;42.25;;;;;6.87;86.94;103150.81;4994911;28;45261;-76
2022/01/28 06:32:31;;;;;;;;;51.50;43.25;;;;;6.81;86.61;103144.97;5003429;28;45308;-77
2022/01/28 06:34:58;;;;;;;;;51.25;42.50;;;;;6.80;86.75;103151.16;4987341;28;45369;-77
2022/01/28 06:37:23;;;;;;;;;51.50;42.00;;;;;6.74;86.90;103140.13;4966727;28;48201;-76
2022/01/28 06:39:48;;;;;;;;;54.00;42.75;;;;;6.73;86.92;103125.19;4984429;28;45347;-76
2022/01/28 06:42:14;;;;;;;;;52.25;43.25;;;;;6.80;87.14;103139.75;5005078;28;45430;-76
2022/01/28 06:44:39;;;;;;;;;50.00;40.75;;;;;6.67;86.69;103119.31;5005212;28;45328;-76
2022/01/28 06:47:05;;;;;;;;;49.00;40.50;;;;;6.64;86.42;103123.91;4990322;28;46120;-76
2022/01/28 06:49:31;;;;;;;;;46.00;40.75;;;;;6.71;86.83;103140.28;4981907;28;45257;-76
2022/01/28 06:51:57;;;;;;;;;51.75;43.50;;;;;6.71;86.94;103151.72;4988664;28;45343;-78
2022/01/28 06:54:23;;;;;;;;;53.00;43.75;;;;;6.69;87.30;103138.59;5005172;28;45359;-77
2022/01/28 06:56:48;;;;;;;;;55.50;44.50;;;;;6.71;86.75;103149.06;5005233;28;46486;-77
2022/01/28 06:59:13;;;;;;;;;54.00;43.00;;;;;6.67;87.06;103140.47;4987609;28;46123;-77
2022/01/28 07:01:38;;;;;;;;;54.50;45.00;;;;;6.65;86.86;103137.03;4987922;28;45322;-77
2022/01/28 07:04:04;;;;;;;;;55.00;42.75;;;;;6.76;86.65;103157.56;4987441;28;46779;-76
2022/01/28 07:06:29;;;;;;;;;55.00;43.50;;;;;6.75;86.70;103158.53;5005420;28;45315;-76
2022/01/28 07:08:55;;;;;;;;;53.75;43.75;;;;;6.74;86.79;103150.69;4985640;28;45431;-76
2022/01/28 07:11:20;;;;;;;;;53.50;44.25;;;;;6.77;86.43;103161.91;5001912;28;45256;-76
2022/01/28 07:13:45;;;;;;;;;49.75;41.75;;;;;6.74;86.75;103156.84;5002679;28;45320;-76
2022/01/28 07:16:11;;;;;;;;;51.75;41.75;;;;;6.71;86.84;103161.44;5002502;28;45418;-75
2022/01/28 07:18:36;;;;;;;;;49.00;39.00;;;;;6.65;86.32;103158.19;4989805;28;45312;-76
2022/01/28 07:21:02;;;;;;;;;47.25;39.25;;;;;6.71;86.69;103174.66;4964947;28;45365;-75
2022/01/28 07:23:27;;;;;;;;;51.75;42.50;;;;;6.69;86.89;103175.59;4964813;28;46513;-75
2022/01/28 07:25:53;;;;;;;;;41.50;36.25;;;;;6.67;86.61;103166.91;4982909;28;46212;-76
2022/01/28 07:28:18;;;;;;;;;47.75;40.00;;;;;6.72;86.83;103178.97;4982021;28;45420;-76
2022/01/28 07:30:44;;;;;;;;;47.25;39.75;;;;;6.71;86.77;103180.78;4995295;28;45274;-76
2022/01/28 07:33:10;;;;;;;;;49.75;41.75;;;;;6.75;86.92;103184.09;5001928;28;45297;-76
2022/01/28 07:35:36;;;;;;;;;55.25;44.75;;;;;6.72;87.09;103184.28;5001659;28;45323;-76
2022/01/28 07:38:02;;;;;;;;;49.75;41.25;;;;;6.73;87.13;103191.28;4984155;28;45915;-76
2022/01/28 07:40:28;;;;;;;;;48.25;40.50;;;;;6.65;87.08;103179.34;5001674;28;45179;-76
2022/01/28 07:42:53;;;;;;;;;57.00;42.25;;;;;6.75;86.99;103192.03;4983721;28;46039;-76
2022/01/28 07:45:18;;;;;;;;;52.00;43.25;;;;;6.69;87.22;103187.94;5001619;28;45976;-76
2022/01/28 07:47:44;;;;;;;;;56.00;45.25;;;;;6.74;86.76;103203.53;5001736;28;45284;-76
2022/01/28 07:50:11;;;;;;;;;50.00;42.00;;;;;6.79;87.07;103210.28;5001786;28;45486;-76
2022/01/28 07:52:37;;;;;;;;;50.25;40.50;;;;;6.68;86.83;103180.97;4983833;28;47121;-76
2022/01/28 07:55:04;;;;;;;;;50.50;41.50;;;;;6.78;87.26;103215.63;5001527;28;45301;-77
2022/01/28 07:57:30;;;;;;;;;55.50;44.50;;;;;6.62;86.89;103200.69;5001289;28;45337;-76
2022/01/28 07:59:56;;;;;;;;;54.00;43.50;;;;;6.64;86.63;103203.19;4983987;28;45294;-76
2022/01/28 08:02:21;;;;;;;;;54.50;44.50;;;;;6.66;87.00;103210.13;4983943;28;47238;-76
2022/01/28 08:04:47;;;;;;;;;56.50;46.00;;;;;6.72;87.56;103219.50;4980940;28;48206;-76
2022/01/28 08:07:12;;;;;;;;;53.00;42.75;;;;;6.66;87.68;103204.84;5001364;28;45192;-76
2022/01/28 08:09:38;;;;;;;;;55.25;43.00;;;;;6.80;87.22;103211.13;4999580;28;45306;-77
2022/01/28 08:12:03;;;;;;;;;50.25;42.00;;;;;6.79;87.25;103209.41;4983201;28;47099;-77
2022/01/28 08:14:31;;;;;;;;;50.75;39.75;;;;;6.82;87.44;103206.59;4983332;28;48443;-77
2022/01/28 08:16:57;;;;;;;;;51.75;42.25;;;;;6.97;87.48;103227.81;4999298;28;45285;-77
2022/01/28 08:19:22;;;;;;;;;47.75;40.50;;;;;6.90;86.80;103211.44;5000154;28;45356;-77
2022/01/28 08:21:48;;;;;;;;;47.25;39.75;;;;;6.99;87.57;103229.41;5002331;28;45289;-77
2022/01/28 08:24:13;;;;;;;;;54.25;42.50;;;;;6.97;87.11;103226.00;4998842;28;46442;-76
2022/01/28 08:26:38;;;;;;;;;52.25;42.00;;;;;7.03;87.01;103233.59;4999518;28;45364;-77
2022/01/28 08:29:06;;;;;;;;;52.00;41.75;;;;;7.06;86.67;103237.84;5002222;28;45325;-75
2022/01/28 08:31:32;;;;;;;;;48.75;40.75;;;;;7.02;86.83;103225.75;4983698;28;47194;-75
2022/01/28 08:33:57;;;;;;;;;54.00;43.75;;;;;7.05;87.33;103229.06;5000614;28;46205;-77
2022/01/28 08:36:22;;;;;;;;;52.75;41.75;;;;;7.16;87.27;103246.94;5001358;28;45219;-75
2022/01/28 08:38:50;;;;;;;;;57.00;46.25;;;;;7.19;86.92;103246.75;5001096;28;45313;-75
2022/01/28 08:41:15;;;;;;;;;61.50;49.25;;;;;7.27;86.80;103251.59;4986174;28;47390;-76
2022/01/28 08:43:42;;;;;;;;;62.25;50.00;;;;;7.28;87.12;103250.66;5002718;28;46162;-77
2022/01/28 08:46:08;;;;;;;;;52.50;44.00;;;;;7.33;86.85;103253.88;4984239;28;45297;-77
2022/01/28 08:48:34;;;;;;;;;54.00;44.00;;;;;7.41;87.22;103261.38;4987866;28;44737;-76
2022/01/28 08:50:59;;;;;;;;;55.75;42.50;;;;;7.47;87.20;103267.22;4985708;28;47450;-77
2022/01/28 08:53:25;;;;;;;;;61.50;47.25;;;;;7.39;86.73;103260.59;4982740;28;47032;-76
2022/01/28 08:55:50;;;;;;;;;61.00;48.50;;;;;7.47;86.97;103278.69;5000567;28;45159;-77
2022/01/28 08:58:16;;;;;;;;;54.00;43.75;;;;;7.44;86.63;103279.72;5000595;28;45314;-76
2022/01/28 09:00:45;;;;;;;;;54.00;44.50;;;;;7.59;87.04;103292.97;5000608;28;45207;-76
2022/01/28 09:03:17;;;;;;;;;55.75;45.75;;;;;7.48;86.68;103275.09;5000573;28;46174;-77
2022/01/28 09:05:44;;;;;;;;;50.75;42.00;;;;;7.62;86.55;103294.59;4982423;28;46035;-79
2022/01/28 09:08:10;;;;;;;;;48.00;38.50;;;;;7.62;86.58;103297.22;5000505;28;45231;-77
2022/01/28 09:10:39;;;;;;;;;48.25;38.50;;;;;7.67;86.15;103301.28;4982092;28;46238;-80
2022/01/28 09:15:41;;;;;;;;;49.75;39.50;;;;;7.79;86.28;103307.69;5004696;28;45291;-80
2022/01/28 09:18:09;;;;;;;;;50.00;41.25;;;;;7.80;85.82;103301.44;4999253;28;45416;-78
2022/01/28 09:20:36;;;;;;;;;48.50;40.50;;;;;7.86;85.93;103313.44;4999931;28;45591;-79
2022/01/28 09:23:03;;;;;;;;;54.00;43.25;;;;;7.86;85.94;103296.69;5018121;28;46326;-78
2022/01/28 09:25:28;;;;;;;;;53.00;43.00;;;;;7.90;85.98;103300.88;5021723;28;45408;-80
2022/01/28 09:27:54;;;;;;;;;54.50;43.25;;;;;7.93;86.11;103309.47;5020271;28;45357;-78
2022/01/28 09:30:20;;;;;;;;;48.50;38.25;;;;;7.98;85.89;103313.63;5002617;28;47204;-80
2022/01/28 09:32:46;;;;;;;;;51.00;39.75;;;;;8.03;85.54;103322.16;5019456;28;46576;-79
2022/01/28 09:35:11;;;;;;;;;50.75;40.75;;;;;7.96;85.71;103298.69;5020105;28;45299;-79
2022/01/28 09:37:37;;;;;;;;;50.00;40.75;;;;;8.08;85.85;103312.13;5002195;28;45221;-81
2022/01/28 09:40:05;;;;;;;;;49.00;40.50;;;;;8.20;86.10;103321.97;5004052;28;45495;-77
2022/01/28 09:42:34;;;;;;;;;51.00;40.00;;;;;8.24;86.01;103305.88;4999652;28;46652;-78
2022/01/28 09:45:01;;;;;;;;;48.75;40.75;;;;;8.27;85.65;103313.66;4981744;28;45976;-80
2022/01/28 09:47:26;;;;;;;;;48.00;37.50;;;;;8.28;85.71;103320.63;5019862;28;45379;-79
2022/01/28 09:49:52;;;;;;;;;44.50;35.25;;;;;8.26;85.78;103310.13;5021045;28;45361;-79
2022/01/28 09:52:19;;;;;;;;;46.00;39.75;;;;;8.31;85.77;103320.47;5022075;28;45958;-79
2022/01/28 09:54:46;;;;;;;;;47.75;38.75;;;;;8.34;85.19;103313.19;5001453;28;45434;-80
2022/01/28 09:57:17;;;;;;;;;47.50;39.50;;;;;8.34;85.33;103309.66;5018402;28;45325;-79
2022/01/28 09:59:42;;;;;;;;;46.25;38.75;;;;;8.32;85.58;103303.63;4985150;28;46057;-79
2022/01/28 10:02:08;;;;;;;;;50.75;41.50;;;;;8.33;85.00;103310.63;4982396;28;47055;-78
2022/01/28 10:04:34;;;;;;;;;49.50;39.50;;;;;8.28;85.07;103300.31;5000911;28;45227;-79
2022/01/28 10:07:11;;;;;;;;;45.25;39.00;;;;;8.17;84.81;103282.41;5000578;28;45230;-79
2022/01/28 10:09:36;;;;;;;;;50.00;40.25;;;;;8.32;85.05;103320.34;4998631;28;45717;-78
2022/01/28 10:12:23;;;;;;;;;51.00;39.50;;;;;8.37;85.10;103314.78;4999151;28;46234;-78
2022/01/28 10:15:06;;;;;;;;;53.00;43.25;;;;;8.36;85.44;103310.44;5000076;28;45590;-79
2022/01/28 10:17:55;;;;;;;;;49.50;39.00;;;;;8.45;84.98;103319.59;5001072;28;45413;-80
2022/01/28 10:20:22;;;;;;;;;49.75;40.25;;;;;8.44;84.91;103302.84;4999952;28;45167;-79
2022/01/28 10:22:57;;;;;;;;;41.50;36.25;;;;;8.47;84.89;103296.47;4999369;28;48049;-79
2022/01/28 10:25:32;;;;;;;;;50.25;39.50;;;;;8.59;85.30;103314.31;4998461;28;45207;-80
2022/01/28 10:28:09;;;;;;;;;49.50;40.75;;;;;8.70;84.95;103318.06;4981950;28;45335;-79
2022/01/28 10:30:37;;;;;;;;;49.50;39.75;;;;;8.67;85.12;103303.22;4998946;28;45440;-79
2022/01/28 10:33:22;;;;;;;;;46.50;38.50;;;;;8.89;84.69;103320.38;4981357;28;49655;-79
2022/01/28 10:35:53;;;;;;;;;43.25;37.25;;;;;8.94;84.82;103304.16;4999269;28;45499;-79
2022/01/28 10:38:30;;;;;;;;;50.75;40.25;;;;;8.98;84.53;103307.47;4981780;28;45265;-79
2022/01/28 10:41:13;;;;;;;;;48.00;40.00;;;;;9.06;84.31;103299.84;4998901;28;45397;-79
2022/01/28 10:43:45;;;;;;;;;39.75;33.25;;;;;9.13;83.60;103309.09;5000635;28;46071;-79
2022/01/28 10:46:11;;;;;;;;;46.75;38.25;;;;;9.10;84.01;103304.03;4984949;28;45234;-80
2022/01/28 10:49:01;;;;;;;;;43.75;37.25;;;;;9.09;83.53;103303.16;5002619;28;45518;-79
2022/01/28 10:51:43;;;;;;;;;46.75;38.25;;;;;9.18;83.37;103314.13;4984645;28;46223;-79
2022/01/28 10:54:11;;;;;;;;;48.50;38.00;;;;;9.25;83.46;103327.84;4984651;28;47114;-79
2022/01/28 10:56:57;;;;;;;;;51.75;40.25;;;;;9.26;83.34;103326.88;5001840;28;45309;-79
2022/01/28 10:59:28;;;;;;;;;49.00;39.75;;;;;9.19;83.24;103315.84;4995183;28;45294;-80
2022/01/28 11:01:54;;;;;;;;;50.25;42.25;;;;;9.29;83.14;103334.63;4964698;28;45386;-80
2022/01/28 11:04:21;;;;;;;;;53.50;42.50;;;;;9.24;82.96;103315.50;4982369;28;45382;-80
2022/01/28 11:06:48;;;;;;;;;55.00;43.00;;;;;9.31;83.21;103322.13;4983226;28;45284;-81
2022/01/28 11:09:16;;;;;;;;;56.25;44.50;;;;;9.33;82.67;103326.38;4983091;28;45297;-79
2022/01/28 11:11:42;;;;;;;;;54.75;42.00;;;;;9.33;82.56;103326.38;4982442;28;45159;-78
2022/01/28 11:14:08;;;;;;;;;58.25;45.50;;;;;9.34;82.82;103324.59;4982992;28;45229;-81
2022/01/28 11:16:34;;;;;;;;;57.75;45.25;;;;;9.32;82.79;103323.81;4982438;28;45281;-80
2022/01/28 11:19:00;;;;;;;;;52.50;43.25;;;;;9.35;82.39;103334.25;4996545;28;45283;-83
2022/01/28 11:21:37;;;;;;;;;50.50;41.50;;;;;9.32;82.42;103331.78;5002115;28;45356;-80
2022/01/28 11:24:42;;;;;;;;;52.75;43.25;;;;;9.30;82.22;103334.53;5001585;28;45535;-81
2022/01/28 11:27:13;;;;;;;;;52.75;44.50;;;;;9.29;82.42;103332.84;4995741;28;45326;-79
2022/01/28 11:29:39;;;;;;;;;52.50;43.25;;;;;9.19;82.53;103315.84;4999803;28;45325;-79
2022/01/28 11:32:17;;;;;;;;;54.75;41.50;;;;;9.30;82.87;103318.63;4984743;28;46466;-82
2022/01/28 11:34:58;;;;;;;;;49.00;40.50;;;;;9.38;82.80;103317.25;5003494;28;45297;-79
2022/01/28 11:37:30;;;;;;;;;49.50;41.25;;;;;9.39;82.60;103303.88;5002396;28;45220;-78
2022/01/28 11:40:06;;;;;;;;;53.00;41.00;;;;;9.38;82.72;103286.25;5002032;28;45289;-80
2022/01/28 11:42:31;;;;;;;;;51.00;42.00;;;;;9.53;82.35;103294.13;4983594;28;46597;-78
2022/01/28 11:45:04;;;;;;;;;52.50;42.50;;;;;9.60;82.35;103292.75;4985079;28;47060;-78
2022/01/28 11:47:33;;;;;;;;;57.00;45.75;;;;;9.70;82.63;103298.31;5002390;28;45530;-78
2022/01/28 11:50:08;;;;;;;;;56.00;44.75;;;;;9.82;82.84;103300.09;5001936;28;45300;-85
2022/01/28 11:52:51;;;;;;;;;51.75;42.25;;;;;9.94;82.54;103293.06;4984064;28;46422;-88
2022/01/28 11:55:25;;;;;;;;;53.25;43.00;;;;;10.05;82.05;103288.81;5000602;28;45515;-85
2022/01/28 11:58:03;;;;;;;;;54.75;44.00;;;;;10.13;81.85;103277.66;4983575;28;45244;-84
2022/01/28 12:00:41;;;;;;;;;55.00;43.25;;;;;10.08;80.79;103268.19;4983672;28;45246;-83
2022/01/28 12:03:22;;;;;;;;;52.00;42.00;;;;;10.16;80.46;103283.59;5000034;28;47450;-80
2022/01/28 12:05:56;;;;;;;;;56.00;44.25;;;;;10.09;80.50;103261.91;5001731;28;45297;-80
2022/01/28 12:08:25;;;;;;;;;54.50;44.25;;;;;10.17;80.60;103266.69;5001403;28;45313;-79
2022/01/28 12:10:51;;;;;;;;;54.25;44.50;;;;;10.30;81.55;103266.66;5001954;28;45437;-79
2022/01/28 12:13:20;;;;;;;;;56.00;45.00;;;;;10.40;81.02;103244.72;5002460;28;45400;-79
2022/01/28 12:15:59;;;;;;;;;51.25;41.75;;;;;10.53;81.04;103244.75;4984096;28;47321;-78
2022/01/28 12:18:26;;;;;;;;;56.50;45.00;;;;;10.55;80.45;103219.72;4983607;28;45791;-79
2022/01/28 12:20:53;;;;;;;;;58.00;44.00;;;;;10.64;80.25;103225.31;4983608;28;45288;-79
2022/01/28 12:23:18;;;;;;;;;57.00;45.00;;;;;10.70;80.40;103232.84;5003018;28;45274;-79
2022/01/28 12:25:44;;;;;;;;;54.25;43.75;;;;;10.72;79.84;103225.59;5002581;28;46073;-80
2022/01/28 12:28:15;;;;;;;;;56.50;45.00;;;;;10.70;79.68;103222.19;4984597;28;45311;-80
2022/01/28 12:31:04;;;;;;;;;48.75;40.25;;;;;10.66;79.57;103229.56;5002665;28;45302;-80
2022/01/28 12:33:33;;;;;;;;;53.25;43.25;;;;;10.59;79.29;103218.53;5002235;28;45275;-80
2022/01/28 12:36:06;;;;;;;;;56.25;42.50;;;;;10.51;79.62;103207.63;5000263;28;48398;-80
2022/01/28 12:38:33;;;;;;;;;53.00;43.50;;;;;10.41;79.34;103201.22;5002479;28;45312;-79
2022/01/28 12:41:07;;;;;;;;;55.75;45.75;;;;;10.35;79.47;103210.50;5001707;28;45244;-82
2022/01/28 12:43:33;;;;;;;;;54.75;43.00;;;;;10.27;79.54;103228.81;4982721;28;47254;-79
2022/01/28 12:46:06;;;;;;;;;52.50;41.00;;;;;10.17;79.51;103220.66;5001494;28;45231;-79